Time,TemperatureF,DewpointF,PressureIn,WindDirection,WindDirectionDegrees,WindSpeedMPH,WindSpeedGustMPH,Humidity,HourlyPrecipIn,Conditions,Clouds,dailyrainin,SoftwareType,DateUTC
2013-03-30 00:02:00,40.7,38.3,30.24,West,270,1.1,4.7,91,0.00,,,0.00,WUHU216HW,2013-03-30 07:02:00,
2013-03-30 00:07:00,40.7,38.3,30.24,NW,315,1.1,4.7,91,0.00,,,0.00,WUHU216HW,2013-03-30 07:07:00,
2013-03-30 00:12:00,40.7,38.3,30.24,WSW,248,1.1,1.3,91,0.00,,,0.00,WUHU216HW,2013-03-30 07:12:00,
2013-03-30 00:17:00,40.7,38.3,30.24,West,270,1.3,1.3,91,0.00,,,0.00,WUHU216HW,2013-03-30 07:17:00,
2013-03-30 00:22:00,40.7,38.3,30.24,SW,225,4.7,4.7,91,0.00,,,0.00,WUHU216HW,2013-03-30 07:22:00,
2013-03-30 00:27:00,40.7,38.3,30.24,NW,315,1.1,4.7,91,0.00,,,0.00,WUHU216HW,2013-03-30 07:27:00,
2013-03-30 00:32:00,40.7,38.3,30.24,WSW,248,1.3,4.7,91,0.00,,,0.00,WUHU216HW,2013-03-30 07:32:00,
2013-03-30 00:37:00,40.7,38.5,30.24,WNW,293,1.1,4.7,92,0.00,,,0.00,WUHU216HW,2013-03-30 07:37:00,
2013-03-30 00:42:00,40.7,38.5,30.24,West,270,1.3,1.3,92,0.00,,,0.00,WUHU216HW,2013-03-30 07:42:00,
2013-03-30 00:47:00,40.7,38.5,30.25,West,270,0.9,1.3,92,0.00,,,0.00,WUHU216HW,2013-03-30 07:47:00,
2013-03-30 00:52:00,40.7,38.5,30.24,West,270,1.1,1.1,92,0.00,,,0.00,WUHU216HW,2013-03-30 07:52:00,
2013-03-30 00:57:00,40.7,38.5,30.24,WSW,248,1.1,1.1,92,0.00,,,0.00,WUHU216HW,2013-03-30 07:57:00,
2013-03-30 01:02:00,40.5,38.1,30.25,West,270,0.0,1.1,91,0.00,,,0.00,WUHU216HW,2013-03-30 08:02:00,
2013-03-30 01:08:00,40.1,37.7,30.24,West,270,0.0,1.1,91,0.00,,,0.00,WUHU216HW,2013-03-30 08:08:00,
2013-03-30 01:13:00,40.0,37.5,30.24,West,270,1.1,1.1,91,0.00,,,0.00,WUHU216HW,2013-03-30 08:13:00,
2013-03-30 01:18:00,40.0,37.5,30.24,West,270,1.1,1.1,91,0.00,,,0.00,WUHU216HW,2013-03-30 08:18:00,
2013-03-30 01:23:00,39.8,37.1,30.24,NW,315,0.0,0.0,90,0.00,,,0.00,WUHU216HW,2013-03-30 08:23:00,
2013-03-30 01:28:00,39.6,36.9,30.25,NW,315,0.9,0.9,90,0.00,,,0.00,WUHU216HW,2013-03-30 08:28:00,
2013-03-30 01:33:00,39.6,36.9,30.25,NW,315,0.9,0.9,90,0.00,,,0.00,WUHU216HW,2013-03-30 08:33:00,
2013-03-30 01:38:00,39.6,36.9,30.25,NW,315,0.9,0.9,90,0.00,,,0.00,WUHU216HW,2013-03-30 08:38:00,
2013-03-30 01:43:00,39.4,36.7,30.25,NW,315,0.9,0.9,90,0.00,,,0.00,WUHU216HW,2013-03-30 08:43:00,
2013-03-30 01:48:00,39.2,36.5,30.25,NW,315,0.9,0.9,90,0.00,,,0.00,WUHU216HW,2013-03-30 08:48:00,
2013-03-30 01:53:00,39.2,36.5,30.26,NW,315,0.0,0.9,90,0.00,,,0.00,WUHU216HW,2013-03-30 08:53:00,
2013-03-30 01:58:00,39.1,36.4,30.26,WSW,248,0.0,0.9,90,0.00,,,0.00,WUHU216HW,2013-03-30 08:58:00,
2013-03-30 02:03:00,38.7,36.0,30.26,WSW,248,1.1,1.1,90,0.00,,,0.00,WUHU216HW,2013-03-30 09:03:00,
2013-03-30 02:08:00,38.7,36.0,30.26,WSW,248,1.1,1.1,90,0.00,,,0.00,WUHU216HW,2013-03-30 09:08:00,
2013-03-30 02:13:00,38.5,35.8,30.26,WSW,248,0.0,1.1,90,0.00,,,0.00,WUHU216HW,2013-03-30 09:13:00,
2013-03-30 02:18:00,38.5,35.8,30.26,WSW,248,0.0,0.9,90,0.00,,,0.00,WUHU216HW,2013-03-30 09:18:00,
2013-03-30 02:23:00,38.3,35.6,30.26,WSW,248,0.7,0.7,90,0.00,,,0.00,WUHU216HW,2013-03-30 09:23:00,
2013-03-30 02:28:00,38.2,35.5,30.26,WSW,248,0.7,0.7,90,0.00,,,0.00,WUHU216HW,2013-03-30 09:28:00,
2013-03-30 02:33:00,38.0,35.0,30.26,NE,45,0.7,0.7,89,0.00,,,0.00,WUHU216HW,2013-03-30 09:33:00,
2013-03-30 02:38:00,37.8,34.8,30.26,NNW,338,0.7,0.7,89,0.00,,,0.00,WUHU216HW,2013-03-30 09:38:00,
2013-03-30 02:43:00,37.8,34.8,30.26,NNW,338,0.7,0.7,89,0.00,,,0.00,WUHU216HW,2013-03-30 09:43:00,
2013-03-30 02:48:00,37.6,34.7,30.26,NNW,338,0.0,0.7,89,0.00,,,0.00,WUHU216HW,2013-03-30 09:48:00,
2013-03-30 02:53:00,37.4,34.5,30.26,SW,225,0.0,0.0,89,0.00,,,0.00,WUHU216HW,2013-03-30 09:53:00,
2013-03-30 02:58:00,37.3,34.0,30.26,SW,225,0.0,0.0,88,0.00,,,0.00,WUHU216HW,2013-03-30 09:58:00,
2013-03-30 03:03:00,37.1,33.9,30.26,SW,225,0.0,0.0,88,0.00,,,0.00,WUHU216HW,2013-03-30 10:03:00,
2013-03-30 03:08:00,37.1,33.9,30.26,SW,225,0.0,0.0,88,0.00,,,0.00,WUHU216HW,2013-03-30 10:08:00,
2013-03-30 03:13:00,36.9,33.7,30.26,SW,225,0.0,0.7,88,0.00,,,0.00,WUHU216HW,2013-03-30 10:13:00,
2013-03-30 03:18:00,36.9,33.7,30.26,North,0,0.0,0.7,88,0.00,,,0.00,WUHU216HW,2013-03-30 10:18:00,
2013-03-30 03:23:00,36.7,33.5,30.26,North,0,0.0,0.0,88,0.00,,,0.00,WUHU216HW,2013-03-30 10:23:00,
2013-03-30 03:28:00,36.7,33.5,30.26,North,0,0.0,0.0,88,0.00,,,0.00,WUHU216HW,2013-03-30 10:28:00,
2013-03-30 03:33:00,36.4,33.1,30.26,West,270,0.0,0.0,88,0.00,,,0.00,WUHU216HW,2013-03-30 10:33:00,
2013-03-30 03:38:00,36.4,33.1,30.26,WSW,248,0.7,0.7,88,0.00,,,0.00,WUHU216HW,2013-03-30 10:38:00,
2013-03-30 03:43:00,36.2,33.0,30.25,SE,135,0.9,0.9,88,0.00,,,0.00,WUHU216HW,2013-03-30 10:43:00,
2013-03-30 03:48:00,36.2,33.0,30.26,SSE,158,0.0,0.9,88,0.00,,,0.00,WUHU216HW,2013-03-30 10:48:00,
2013-03-30 03:53:00,36.0,32.8,30.26,SSE,158,0.7,0.9,88,0.00,,,0.00,WUHU216HW,2013-03-30 10:53:00,
2013-03-30 03:58:00,36.0,32.8,30.26,SSW,203,0.0,0.7,88,0.00,,,0.00,WUHU216HW,2013-03-30 10:58:00,
2013-03-30 04:03:00,35.8,32.6,30.26,SSW,203,0.7,0.9,88,0.00,,,0.00,WUHU216HW,2013-03-30 11:03:00,
2013-03-30 04:08:00,35.6,32.7,30.26,SSE,158,0.7,0.9,89,0.00,,,0.00,WUHU216HW,2013-03-30 11:08:00,
2013-03-30 04:13:00,35.8,32.9,30.25,SSE,158,0.9,0.9,89,0.00,,,0.00,WUHU216HW,2013-03-30 11:13:00,
2013-03-30 04:18:00,36.0,33.0,30.25,South,180,1.1,1.1,89,0.00,,,0.00,WUHU216HW,2013-03-30 11:18:00,
2013-03-30 04:23:00,35.8,32.9,30.25,South,180,1.1,1.1,89,0.00,,,0.00,WUHU216HW,2013-03-30 11:23:00,
2013-03-30 04:28:00,36.0,33.0,30.25,SSE,158,1.1,1.6,89,0.00,,,0.00,WUHU216HW,2013-03-30 11:28:00,
2013-03-30 04:33:00,36.4,33.7,30.26,South,180,0.0,1.6,90,0.00,,,0.00,WUHU216HW,2013-03-30 11:33:00,
2013-03-30 04:38:00,36.9,34.2,30.25,SSW,203,0.7,1.8,90,0.00,,,0.00,WUHU216HW,2013-03-30 11:38:00,
2013-03-30 04:43:00,36.7,34.0,30.25,SW,225,0.7,1.8,90,0.00,,,0.00,WUHU216HW,2013-03-30 11:43:00,
2013-03-30 04:48:00,36.7,34.0,30.25,WSW,248,1.6,1.6,90,0.00,,,0.00,WUHU216HW,2013-03-30 11:48:00,
2013-03-30 04:53:00,36.9,34.2,30.25,SW,225,1.8,1.8,90,0.00,,,0.00,WUHU216HW,2013-03-30 11:53:00,
2013-03-30 04:58:00,38.2,35.7,30.25,SW,225,1.8,1.8,91,0.00,,,0.00,WUHU216HW,2013-03-30 11:58:00,
2013-03-30 05:03:00,38.7,36.3,30.25,WSW,248,1.8,1.8,91,0.00,,,0.00,WUHU216HW,2013-03-30 12:03:00,
2013-03-30 05:08:00,38.9,36.2,30.25,WSW,248,0.7,1.8,90,0.00,,,0.00,WUHU216HW,2013-03-30 12:08:00,
2013-03-30 05:13:00,39.1,36.6,30.25,West,270,0.0,1.8,91,0.00,,,0.00,WUHU216HW,2013-03-30 12:13:00,
2013-03-30 05:18:00,39.1,36.6,30.25,NW,315,0.2,1.8,91,0.00,,,0.00,WUHU216HW,2013-03-30 12:18:00,
2013-03-30 05:23:00,38.9,36.2,30.25,SW,225,0.0,0.4,90,0.00,,,0.00,WUHU216HW,2013-03-30 12:23:00,
2013-03-30 05:28:00,38.7,36.0,30.25,SW,225,0.0,0.4,90,0.00,,,0.00,WUHU216HW,2013-03-30 12:28:00,
2013-03-30 05:33:00,38.9,36.2,30.25,SSW,203,0.0,0.4,90,0.00,,,0.00,WUHU216HW,2013-03-30 12:33:00,
2013-03-30 05:38:00,38.9,36.2,30.25,SW,225,0.0,0.4,90,0.00,,,0.00,WUHU216HW,2013-03-30 12:38:00,
2013-03-30 05:43:00,39.2,36.8,30.25,NNW,338,0.4,1.1,91,0.00,,,0.00,WUHU216HW,2013-03-30 12:43:00,
2013-03-30 05:48:00,39.2,36.8,30.26,NNW,338,1.1,1.1,91,0.00,,,0.00,WUHU216HW,2013-03-30 12:48:00,
2013-03-30 05:53:00,38.9,36.2,30.25,NNW,338,0.4,1.1,90,0.00,,,0.00,WUHU216HW,2013-03-30 12:53:00,
2013-03-30 05:58:00,38.5,35.8,30.25,NNW,338,0.0,0.4,90,0.00,,,0.00,WUHU216HW,2013-03-30 12:58:00,
2013-03-30 06:03:00,38.2,35.5,30.25,NNW,338,0.0,0.4,90,0.00,,,0.00,WUHU216HW,2013-03-30 13:03:00,
2013-03-30 06:08:00,38.0,35.3,30.26,NNW,338,0.0,0.0,90,0.00,,,0.00,WUHU216HW,2013-03-30 13:08:00,
2013-03-30 06:13:00,38.0,35.3,30.26,NNW,338,0.0,0.0,90,0.00,,,0.00,WUHU216HW,2013-03-30 13:13:00,
2013-03-30 06:18:00,37.8,35.1,30.26,NNW,338,0.0,0.0,90,0.00,,,0.00,WUHU216HW,2013-03-30 13:18:00,
2013-03-30 06:23:00,37.8,35.1,30.25,NNW,338,0.0,0.0,90,0.00,,,0.00,WUHU216HW,2013-03-30 13:23:00,
2013-03-30 06:28:00,37.8,35.1,30.25,NNW,338,0.0,0.0,90,0.00,,,0.00,WUHU216HW,2013-03-30 13:28:00,
2013-03-30 06:33:00,37.4,34.7,30.26,SW,225,0.0,0.0,90,0.00,,,0.00,WUHU216HW,2013-03-30 13:33:00,
2013-03-30 06:38:00,37.4,34.7,30.26,SSW,203,0.0,0.0,90,0.00,,,0.00,WUHU216HW,2013-03-30 13:38:00,
2013-03-30 06:43:00,37.8,35.4,30.26,WSW,248,1.1,1.1,91,0.00,,,0.00,WUHU216HW,2013-03-30 13:43:00,
2013-03-30 06:48:00,37.8,35.1,30.26,WSW,248,0.4,1.1,90,0.00,,,0.00,WUHU216HW,2013-03-30 13:48:00,
2013-03-30 06:53:00,37.6,34.9,30.26,WSW,248,0.9,1.1,90,0.00,,,0.00,WUHU216HW,2013-03-30 13:53:00,
2013-03-30 06:58:00,37.8,35.1,30.26,WSW,248,0.4,0.9,90,0.00,,,0.00,WUHU216HW,2013-03-30 13:58:00,
2013-03-30 07:03:00,38.2,35.5,30.26,SW,225,0.4,0.9,90,0.00,,,0.00,WUHU216HW,2013-03-30 14:03:00,
2013-03-30 07:08:00,39.1,36.9,30.26,WSW,248,1.6,2.0,92,0.00,,,0.00,WUHU216HW,2013-03-30 14:08:00,
2013-03-30 07:13:00,39.4,37.3,30.26,SW,225,1.6,2.0,92,0.00,,,0.00,WUHU216HW,2013-03-30 14:13:00,
2013-03-30 07:18:00,39.8,37.9,30.26,WSW,248,1.8,2.0,93,0.00,,,0.00,WUHU216HW,2013-03-30 14:18:00,
2013-03-30 07:23:00,40.1,38.3,30.26,WSW,248,1.8,2.0,93,0.00,,,0.00,WUHU216HW,2013-03-30 14:23:00,
2013-03-30 07:28:00,40.7,38.8,30.26,SSW,203,0.4,1.8,93,0.00,,,0.00,WUHU216HW,2013-03-30 14:28:00,
2013-03-30 07:33:00,41.2,39.3,30.26,WSW,248,1.8,1.8,93,0.00,,,0.00,WUHU216HW,2013-03-30 14:33:00,
2013-03-30 07:38:00,41.4,39.0,30.26,SW,225,0.4,1.8,91,0.00,,,0.00,WUHU216HW,2013-03-30 14:38:00,
2013-03-30 07:43:00,41.8,39.3,30.26,SW,225,1.8,1.8,91,0.00,,,0.00,WUHU216HW,2013-03-30 14:43:00,
2013-03-30 07:48:00,42.3,39.6,30.26,SSW,203,1.1,1.8,90,0.00,,,0.00,WUHU216HW,2013-03-30 14:48:00,
2013-03-30 07:53:00,42.5,39.8,30.26,SW,225,1.8,1.8,90,0.00,,,0.00,WUHU216HW,2013-03-30 14:53:00,
2013-03-30 07:59:00,43.0,40.3,30.26,WSW,248,1.3,1.8,90,0.00,,,0.00,WUHU216HW,2013-03-30 14:59:00,
2013-03-30 08:04:00,43.2,40.5,30.26,WSW,248,1.8,1.8,90,0.00,,,0.00,WUHU216HW,2013-03-30 15:04:00,
2013-03-30 08:09:00,43.7,40.8,30.26,WSW,248,1.3,1.8,89,0.00,,,0.00,WUHU216HW,2013-03-30 15:09:00,
2013-03-30 08:14:00,43.9,41.0,30.26,WSW,248,1.1,1.8,89,0.00,,,0.00,WUHU216HW,2013-03-30 15:14:00,
2013-03-30 08:19:00,44.3,41.3,30.26,SW,225,0.9,1.1,89,0.00,,,0.00,WUHU216HW,2013-03-30 15:19:00,
2013-03-30 08:24:00,44.3,41.3,30.26,SW,225,0.9,1.3,89,0.00,,,0.00,WUHU216HW,2013-03-30 15:24:00,
2013-03-30 08:29:00,44.6,41.7,30.26,West,270,1.8,1.8,89,0.00,,,0.00,WUHU216HW,2013-03-30 15:29:00,
2013-03-30 08:34:00,44.8,42.1,30.26,NW,315,1.3,1.8,90,0.00,,,0.00,WUHU216HW,2013-03-30 15:34:00,
2013-03-30 08:39:00,45.0,42.3,30.26,WSW,248,1.8,1.8,90,0.00,,,0.00,WUHU216HW,2013-03-30 15:39:00,
2013-03-30 08:44:00,45.7,43.0,30.26,NNW,338,1.6,1.8,90,0.00,,,0.00,WUHU216HW,2013-03-30 15:44:00,
2013-03-30 08:49:00,46.3,43.3,30.26,NNW,338,0.9,1.8,89,0.00,,,0.00,WUHU216HW,2013-03-30 15:49:00,
2013-03-30 08:54:00,46.4,43.5,30.26,NW,315,1.6,1.8,89,0.00,,,0.00,WUHU216HW,2013-03-30 15:54:00,
2013-03-30 08:59:00,46.8,43.5,30.26,NW,315,1.8,1.8,88,0.00,,,0.00,WUHU216HW,2013-03-30 15:59:00,
2013-03-30 09:04:00,47.2,43.8,30.26,NNW,338,1.8,1.8,88,0.00,,,0.00,WUHU216HW,2013-03-30 16:04:00,
2013-03-30 09:09:00,47.5,43.8,30.26,NW,315,1.8,1.8,87,0.00,,,0.00,WUHU216HW,2013-03-30 16:09:00,
2013-03-30 09:14:00,47.9,44.2,30.26,NNW,338,1.8,1.8,87,0.00,,,0.00,WUHU216HW,2013-03-30 16:14:00,
2013-03-30 09:19:00,48.1,44.1,30.26,North,0,0.9,1.8,86,0.00,,,0.00,WUHU216HW,2013-03-30 16:19:00,
2013-03-30 09:24:00,48.6,44.6,30.26,NW,315,1.8,1.8,86,0.00,,,0.00,WUHU216HW,2013-03-30 16:24:00,
2013-03-30 09:29:00,49.0,44.9,30.26,WSW,248,0.9,1.8,86,0.00,,,0.00,WUHU216HW,2013-03-30 16:29:00,
2013-03-30 09:34:00,49.1,44.8,30.26,NW,315,1.8,1.8,85,0.00,,,0.00,WUHU216HW,2013-03-30 16:34:00,
2013-03-30 09:39:00,49.5,45.1,30.26,NW,315,1.8,1.8,85,0.00,,,0.00,WUHU216HW,2013-03-30 16:39:00,
2013-03-30 09:44:00,49.7,45.3,30.26,NNW,338,0.9,1.8,85,0.00,,,0.00,WUHU216HW,2013-03-30 16:44:00,
2013-03-30 09:49:00,50.0,45.4,30.26,NW,315,0.9,1.8,84,0.00,,,0.00,WUHU216HW,2013-03-30 16:49:00,
2013-03-30 09:54:00,50.2,45.6,30.26,NNW,338,1.8,1.8,84,0.00,,,0.00,WUHU216HW,2013-03-30 16:54:00,
2013-03-30 09:59:00,50.4,45.4,30.26,NW,315,1.1,1.8,83,0.00,,,0.00,WUHU216HW,2013-03-30 16:59:00,
2013-03-30 10:04:00,50.8,45.7,30.26,North,0,0.9,1.1,83,0.00,,,0.00,WUHU216HW,2013-03-30 17:04:00,
2013-03-30 10:09:00,50.9,45.6,30.26,NW,315,0.9,1.8,82,0.00,,,0.00,WUHU216HW,2013-03-30 17:09:00,
2013-03-30 10:14:00,51.1,45.8,30.25,NNW,338,3.6,3.6,82,0.00,,,0.00,WUHU216HW,2013-03-30 17:14:00,
2013-03-30 10:19:00,51.1,45.5,30.25,NNW,338,3.6,3.6,81,0.00,,,0.00,WUHU216HW,2013-03-30 17:19:00,
2013-03-30 10:24:00,51.1,45.5,30.26,NW,315,1.1,3.6,81,0.00,,,0.00,WUHU216HW,2013-03-30 17:24:00,
2013-03-30 10:29:00,51.1,45.5,30.25,NW,315,3.6,3.6,81,0.00,,,0.00,WUHU216HW,2013-03-30 17:29:00,
2013-03-30 10:34:00,51.1,45.8,30.25,NNW,338,4.5,4.5,82,0.00,,,0.00,WUHU216HW,2013-03-30 17:34:00,
2013-03-30 10:39:00,51.5,45.8,30.26,North,0,0.9,4.7,81,0.00,,,0.00,WUHU216HW,2013-03-30 17:39:00,
2013-03-30 10:44:00,51.7,45.7,30.25,North,0,3.6,4.7,80,0.00,,,0.00,WUHU216HW,2013-03-30 17:44:00,
2013-03-30 10:49:00,51.8,46.2,30.25,NW,315,3.6,4.7,81,0.00,,,0.00,WUHU216HW,2013-03-30 17:49:00,
2013-03-30 10:54:00,51.8,45.5,30.25,WSW,248,4.0,4.7,79,0.00,,,0.00,WUHU216HW,2013-03-30 17:54:00,
2013-03-30 10:59:00,52.0,46.1,30.25,NNE,23,4.7,4.7,80,0.00,,,0.00,WUHU216HW,2013-03-30 17:59:00,
2013-03-30 11:04:00,52.0,45.7,30.25,NNW,338,4.0,4.7,79,0.00,,,0.00,WUHU216HW,2013-03-30 18:04:00,
2013-03-30 11:09:00,52.0,46.1,30.26,NNE,23,0.9,4.0,80,0.00,,,0.00,WUHU216HW,2013-03-30 18:09:00,
2013-03-30 11:14:00,52.2,45.9,30.25,NNW,338,3.4,3.4,79,0.00,,,0.00,WUHU216HW,2013-03-30 18:14:00,
2013-03-30 11:19:00,52.7,46.4,30.25,NE,45,4.7,4.7,79,0.00,,,0.00,WUHU216HW,2013-03-30 18:19:00,
2013-03-30 11:24:00,52.9,46.6,30.26,NNW,338,0.9,4.7,79,0.00,,,0.00,WUHU216HW,2013-03-30 18:24:00,
2013-03-30 11:29:00,53.1,46.4,30.26,NNE,23,0.9,4.7,78,0.00,,,0.00,WUHU216HW,2013-03-30 18:29:00,
2013-03-30 11:34:00,53.3,46.3,30.26,NW,315,0.9,6.3,77,0.00,,,0.00,WUHU216HW,2013-03-30 18:34:00,
2013-03-30 11:39:00,53.5,45.7,30.25,NNW,338,1.8,6.3,75,0.00,,,0.00,WUHU216HW,2013-03-30 18:39:00,
2013-03-30 11:44:00,54.0,46.6,30.25,North,0,4.7,4.7,76,0.00,,,0.00,WUHU216HW,2013-03-30 18:44:00,
2013-03-30 11:49:00,54.0,46.6,30.25,North,0,4.7,4.7,76,0.00,,,0.00,WUHU216HW,2013-03-30 18:49:00,
2013-03-30 11:54:00,54.7,47.6,30.25,North,0,6.3,6.3,77,0.00,,,0.00,WUHU216HW,2013-03-30 18:54:00,
2013-03-30 11:59:00,54.9,47.4,30.25,North,0,4.7,6.3,76,0.00,,,0.00,WUHU216HW,2013-03-30 18:59:00,
2013-03-30 12:04:00,55.1,47.3,30.25,North,0,6.3,6.3,75,0.00,,,0.00,WUHU216HW,2013-03-30 19:04:00,
2013-03-30 12:09:00,55.3,47.1,30.26,NNE,23,0.9,6.3,74,0.00,,,0.00,WUHU216HW,2013-03-30 19:09:00,
2013-03-30 12:14:00,55.3,47.1,30.25,ENE,68,6.3,6.3,74,0.00,,,0.00,WUHU216HW,2013-03-30 19:14:00,
2013-03-30 12:20:00,55.3,46.7,30.25,North,0,4.7,6.3,73,0.00,,,0.00,WUHU216HW,2013-03-30 19:20:00,
2013-03-30 12:25:00,55.8,46.5,30.26,North,0,0.9,6.3,71,0.00,,,0.00,WUHU216HW,2013-03-30 19:25:00,
2013-03-30 12:30:00,56.0,46.0,30.24,WNW,293,3.4,6.3,69,0.00,,,0.00,WUHU216HW,2013-03-30 19:30:00,
2013-03-30 12:35:00,55.8,45.8,30.24,WSW,248,1.6,6.3,69,0.00,,,0.00,WUHU216HW,2013-03-30 19:35:00,
2013-03-30 12:40:00,56.0,46.4,30.24,NNW,338,4.7,4.7,70,0.00,,,0.00,WUHU216HW,2013-03-30 19:40:00,
2013-03-30 12:45:00,56.5,47.3,30.24,NE,45,2.0,4.7,71,0.00,,,0.00,WUHU216HW,2013-03-30 19:45:00,
2013-03-30 12:50:00,56.9,47.5,30.24,North,0,2.2,4.3,71,0.00,,,0.00,WUHU216HW,2013-03-30 19:50:00,
2013-03-30 12:55:00,57.4,45.7,30.23,NNW,338,3.8,4.7,65,0.00,,,0.00,WUHU216HW,2013-03-30 19:55:00,
2013-03-30 13:00:00,57.4,46.1,30.23,NW,315,2.5,4.7,66,0.00,,,0.00,WUHU216HW,2013-03-30 20:00:00,
2013-03-30 13:05:00,57.6,46.7,30.23,NNE,23,4.9,4.9,67,0.00,,,0.00,WUHU216HW,2013-03-30 20:05:00,
2013-03-30 13:10:00,57.6,46.7,30.23,NW,315,3.4,4.9,67,0.00,,,0.00,WUHU216HW,2013-03-30 20:10:00,
2013-03-30 13:15:00,58.0,45.8,30.23,North,0,3.4,4.5,64,0.00,,,0.00,WUHU216HW,2013-03-30 20:15:00,
2013-03-30 13:20:00,58.0,46.3,30.23,NNW,338,0.9,4.5,65,0.00,,,0.00,WUHU216HW,2013-03-30 20:20:00,
2013-03-30 13:25:00,58.5,47.2,30.23,ESE,113,4.0,4.0,66,0.00,,,0.00,WUHU216HW,2013-03-30 20:25:00,
2013-03-30 13:30:00,59.4,47.2,30.22,West,270,4.0,4.0,64,0.00,,,0.00,WUHU216HW,2013-03-30 20:30:00,
2013-03-30 13:35:00,59.6,47.8,30.22,ENE,68,4.0,4.0,65,0.00,,,0.00,WUHU216HW,2013-03-30 20:35:00,
2013-03-30 13:40:00,60.1,48.3,30.22,North,0,2.0,4.0,65,0.00,,,0.00,WUHU216HW,2013-03-30 20:40:00,
2013-03-30 13:45:00,60.3,48.5,30.22,NNE,23,0.9,3.6,65,0.00,,,0.00,WUHU216HW,2013-03-30 20:45:00,
2013-03-30 13:50:00,60.5,48.7,30.22,ENE,68,2.0,4.0,65,0.00,,,0.00,WUHU216HW,2013-03-30 20:50:00,
2013-03-30 13:55:00,61.0,49.2,30.21,NE,45,4.7,4.7,65,0.00,,,0.00,WUHU216HW,2013-03-30 20:55:00,
2013-03-30 14:00:00,60.8,48.6,30.21,NE,45,3.4,5.1,64,0.00,,,0.00,WUHU216HW,2013-03-30 21:00:00,
2013-03-30 14:05:00,61.2,49.4,30.21,North,0,5.4,5.4,65,0.00,,,0.00,WUHU216HW,2013-03-30 21:05:00,
2013-03-30 14:10:00,61.2,49.0,30.21,North,0,4.9,5.4,64,0.00,,,0.00,WUHU216HW,2013-03-30 21:10:00,
2013-03-30 14:15:00,61.6,48.9,30.21,NNE,23,1.8,4.9,63,0.00,,,0.00,WUHU216HW,2013-03-30 21:15:00,
2013-03-30 14:20:00,61.4,47.4,30.21,NNW,338,2.5,4.7,60,0.00,,,0.00,WUHU216HW,2013-03-30 21:20:00,
2013-03-30 14:25:00,61.6,48.9,30.21,NNW,338,0.9,3.6,63,0.00,,,0.00,WUHU216HW,2013-03-30 21:25:00,
2013-03-30 14:30:00,62.3,49.5,30.21,North,0,5.4,5.4,63,0.00,,,0.00,WUHU216HW,2013-03-30 21:30:00,
2013-03-30 14:35:00,63.0,50.2,30.20,ENE,68,1.3,5.4,63,0.00,,,0.00,WUHU216HW,2013-03-30 21:35:00,
2013-03-30 14:40:00,64.6,50.4,30.20,North,0,4.0,4.3,60,0.00,,,0.00,WUHU216HW,2013-03-30 21:40:00,
2013-03-30 14:45:00,66.2,50.0,30.20,NNE,23,2.5,4.3,56,0.00,,,0.00,WUHU216HW,2013-03-30 21:45:00,
2013-03-30 14:50:00,67.7,51.4,30.19,NNW,338,2.7,3.8,56,0.00,,,0.00,WUHU216HW,2013-03-30 21:50:00,
2013-03-30 14:55:00,68.4,49.6,30.19,WSW,248,2.0,5.4,51,0.00,,,0.00,WUHU216HW,2013-03-30 21:55:00,
2013-03-30 15:00:00,68.8,51.0,30.19,NNE,23,4.7,5.4,53,0.00,,,0.00,WUHU216HW,2013-03-30 22:00:00,
2013-03-30 15:05:00,69.3,50.0,30.19,NNE,23,4.3,4.7,50,0.00,,,0.00,WUHU216HW,2013-03-30 22:05:00,
2013-03-30 15:10:00,70.2,52.2,30.18,ENE,68,1.1,4.3,53,0.00,,,0.00,WUHU216HW,2013-03-30 22:10:00,
2013-03-30 15:15:00,69.8,49.8,30.19,North,0,4.0,4.5,49,0.00,,,0.00,WUHU216HW,2013-03-30 22:15:00,
2013-03-30 15:20:00,70.0,51.0,30.18,NNW,338,2.5,4.5,51,0.00,,,0.00,WUHU216HW,2013-03-30 22:20:00,
2013-03-30 15:25:00,69.8,48.6,30.18,WNW,293,2.2,4.7,47,0.00,,,0.00,WUHU216HW,2013-03-30 22:25:00,
2013-03-30 15:30:00,67.5,48.3,30.18,North,0,3.1,4.9,50,0.00,,,0.00,WUHU216HW,2013-03-30 22:30:00,
2013-03-30 15:35:00,67.5,48.3,30.18,NNW,338,3.4,4.9,50,0.00,,,0.00,WUHU216HW,2013-03-30 22:35:00,
2013-03-30 15:40:00,67.3,48.6,30.17,North,0,2.5,4.5,51,0.00,,,0.00,WUHU216HW,2013-03-30 22:40:00,
2013-03-30 15:45:00,68.2,50.0,30.17,NNE,23,1.3,4.5,52,0.00,,,0.00,WUHU216HW,2013-03-30 22:45:00,
2013-03-30 15:50:00,69.3,48.7,30.17,North,0,4.9,4.9,48,0.00,,,0.00,WUHU216HW,2013-03-30 22:50:00,
2013-03-30 15:55:00,69.5,50.0,30.17,North,0,3.1,4.9,50,0.00,,,0.00,WUHU216HW,2013-03-30 22:55:00,
2013-03-30 16:00:00,69.7,49.7,30.16,North,0,6.9,8.3,49,0.00,,,0.00,WUHU216HW,2013-03-30 23:00:00,
2013-03-30 16:05:00,68.9,49.0,30.16,North,0,1.1,8.3,49,0.00,,,0.00,WUHU216HW,2013-03-30 23:05:00,
2013-03-30 16:10:00,69.5,49.5,30.16,North,0,5.1,5.6,49,0.00,,,0.00,WUHU216HW,2013-03-30 23:10:00,
2013-03-30 16:15:00,70.2,50.1,30.16,NE,45,2.0,5.1,49,0.00,,,0.00,WUHU216HW,2013-03-30 23:15:00,
2013-03-30 16:20:00,70.7,49.4,30.16,NW,315,2.0,4.3,47,0.00,,,0.00,WUHU216HW,2013-03-30 23:20:00,
2013-03-30 16:25:00,70.7,48.9,30.16,North,0,3.8,4.7,46,0.00,,,0.00,WUHU216HW,2013-03-30 23:25:00,
2013-03-30 16:31:00,71.6,50.2,30.16,NNE,23,2.0,4.7,47,0.00,,,0.00,WUHU216HW,2013-03-30 23:31:00,
2013-03-30 16:36:00,71.8,50.4,30.16,NNE,23,2.7,3.4,47,0.00,,,0.00,WUHU216HW,2013-03-30 23:36:00,
2013-03-30 16:41:00,72.0,50.6,30.15,ENE,68,3.1,3.4,47,0.00,,,0.00,WUHU216HW,2013-03-30 23:41:00,
2013-03-30 16:46:00,72.5,49.9,30.15,North,0,1.8,3.1,45,0.00,,,0.00,WUHU216HW,2013-03-30 23:46:00,
2013-03-30 16:51:00,73.3,51.1,30.15,North,0,0.9,2.9,46,0.00,,,0.00,WUHU216HW,2013-03-30 23:51:00,
2013-03-30 16:56:00,74.0,50.6,30.15,North,0,3.1,3.1,44,0.00,,,0.00,WUHU216HW,2013-03-30 23:56:00,
2013-03-30 17:01:00,72.9,49.6,30.15,NNW,338,1.1,4.0,44,0.00,,,0.00,WUHU216HW,2013-03-31 00:01:00,
2013-03-30 17:06:00,72.4,49.7,30.14,NNE,23,4.7,4.7,45,0.00,,,0.00,WUHU216HW,2013-03-31 00:06:00,
2013-03-30 17:11:00,71.6,49.7,30.14,North,0,4.7,4.7,46,0.00,,,0.00,WUHU216HW,2013-03-31 00:11:00,
2013-03-30 17:16:00,71.3,49.3,30.14,NW,315,1.1,4.7,46,0.00,,,0.00,WUHU216HW,2013-03-31 00:16:00,
2013-03-30 17:21:00,70.6,48.7,30.14,NE,45,2.2,4.5,46,0.00,,,0.00,WUHU216HW,2013-03-31 00:21:00,
2013-03-30 17:26:00,70.2,48.3,30.14,North,0,3.4,4.5,46,0.00,,,0.00,WUHU216HW,2013-03-31 00:26:00,
2013-03-30 17:31:00,68.6,46.9,30.14,North,0,3.4,4.0,46,0.00,,,0.00,WUHU216HW,2013-03-31 00:31:00,
2013-03-30 17:36:00,66.6,45.7,30.14,North,0,2.0,4.0,47,0.00,,,0.00,WUHU216HW,2013-03-31 00:36:00,
2013-03-30 17:41:00,65.5,45.8,30.13,North,0,2.2,3.4,49,0.00,,,0.00,WUHU216HW,2013-03-31 00:41:00,
2013-03-30 17:46:00,64.8,45.7,30.13,North,0,0.9,3.4,50,0.00,,,0.00,WUHU216HW,2013-03-31 00:46:00,
2013-03-30 17:51:00,64.6,46.0,30.13,East,90,0.0,2.9,51,0.00,,,0.00,WUHU216HW,2013-03-31 00:51:00,
2013-03-30 17:56:00,64.3,45.7,30.13,NNE,23,2.5,2.5,51,0.00,,,0.00,WUHU216HW,2013-03-31 00:56:00,
2013-03-30 18:01:00,64.1,45.0,30.13,North,0,1.1,3.4,50,0.00,,,0.00,WUHU216HW,2013-03-31 01:01:00,
2013-03-30 18:06:00,63.5,45.0,30.13,North,0,0.9,3.4,51,0.00,,,0.00,WUHU216HW,2013-03-31 01:06:00,
2013-03-30 18:11:00,63.4,45.4,30.12,North,0,0.0,2.0,52,0.00,,,0.00,WUHU216HW,2013-03-31 01:11:00,
2013-03-30 18:17:00,63.5,45.6,30.12,WNW,293,0.9,1.3,52,0.00,,,0.00,WUHU216HW,2013-03-31 01:17:00,
2013-03-30 18:22:00,63.7,45.7,30.12,West,270,0.4,1.1,52,0.00,,,0.00,WUHU216HW,2013-03-31 01:22:00,
2013-03-30 18:27:00,63.0,45.0,30.12,North,0,0.2,1.1,52,0.00,,,0.00,WUHU216HW,2013-03-31 01:27:00,
2013-03-30 18:32:00,62.3,44.9,30.12,NNW,338,0.0,1.3,53,0.00,,,0.00,WUHU216HW,2013-03-31 01:32:00,
2013-03-30 18:37:00,61.9,44.6,30.12,NNW,338,0.0,1.3,53,0.00,,,0.00,WUHU216HW,2013-03-31 01:37:00,
2013-03-30 18:42:00,61.6,45.2,30.12,WNW,293,0.2,0.2,55,0.00,,,0.00,WUHU216HW,2013-03-31 01:42:00,
2013-03-30 18:47:00,61.4,45.0,30.11,WNW,293,0.0,0.2,55,0.00,,,0.00,WUHU216HW,2013-03-31 01:47:00,
2013-03-30 18:52:00,60.8,45.0,30.11,WNW,293,0.0,0.0,56,0.00,,,0.00,WUHU216HW,2013-03-31 01:52:00,
2013-03-30 18:57:00,60.3,45.0,30.11,WNW,293,0.0,0.0,57,0.00,,,0.00,WUHU216HW,2013-03-31 01:57:00,
2013-03-30 19:02:00,59.8,44.5,30.11,WSW,248,0.0,0.7,57,0.00,,,0.00,WUHU216HW,2013-03-31 02:02:00,
2013-03-30 19:07:00,59.4,44.7,30.11,WSW,248,0.0,0.7,58,0.00,,,0.00,WUHU216HW,2013-03-31 02:07:00,
2013-03-30 19:12:00,59.0,44.3,30.11,WSW,248,0.9,0.9,58,0.00,,,0.00,WUHU216HW,2013-03-31 02:12:00,
2013-03-30 19:17:00,58.7,43.9,30.11,WSW,248,0.7,0.9,58,0.00,,,0.00,WUHU216HW,2013-03-31 02:17:00,
2013-03-30 19:22:00,58.1,43.5,30.11,WSW,248,0.9,0.9,58,0.00,,,0.00,WUHU216HW,2013-03-31 02:22:00,
2013-03-30 19:27:00,57.8,43.1,30.11,WSW,248,0.0,0.9,58,0.00,,,0.00,WUHU216HW,2013-03-31 02:27:00,
2013-03-30 19:32:00,57.4,43.3,30.11,WSW,248,0.0,0.4,59,0.00,,,0.00,WUHU216HW,2013-03-31 02:32:00,
2013-03-30 19:37:00,56.9,42.8,30.11,WSW,248,0.0,0.0,59,0.00,,,0.00,WUHU216HW,2013-03-31 02:37:00,
2013-03-30 19:42:00,56.5,42.8,30.11,WSW,248,0.0,0.0,60,0.00,,,0.00,WUHU216HW,2013-03-31 02:42:00,
2013-03-30 19:47:00,56.2,42.5,30.11,WSW,248,0.0,0.0,60,0.00,,,0.00,WUHU216HW,2013-03-31 02:47:00,
2013-03-30 19:52:00,55.6,41.9,30.11,WSW,248,0.0,0.0,60,0.00,,,0.00,WUHU216HW,2013-03-31 02:52:00,
2013-03-30 19:57:00,55.3,42.0,30.11,WSW,248,0.0,0.0,61,0.00,,,0.00,WUHU216HW,2013-03-31 02:57:00,
2013-03-30 20:02:00,54.9,41.7,30.11,WSW,248,0.4,0.9,61,0.00,,,0.00,WUHU216HW,2013-03-31 03:02:00,
2013-03-30 20:07:00,54.5,41.8,30.10,SW,225,1.3,1.3,62,0.00,,,0.00,WUHU216HW,2013-03-31 03:07:00,
2013-03-30 20:12:00,54.0,41.7,30.10,SW,225,1.1,1.3,63,0.00,,,0.00,WUHU216HW,2013-03-31 03:12:00,
2013-03-30 20:17:00,53.6,41.8,30.10,SSW,203,1.1,1.6,64,0.00,,,0.00,WUHU216HW,2013-03-31 03:17:00,
2013-03-30 20:22:00,53.6,41.8,30.10,South,180,1.3,1.6,64,0.00,,,0.00,WUHU216HW,2013-03-31 03:22:00,
2013-03-30 20:27:00,53.5,42.4,30.10,SSE,158,2.2,2.2,66,0.00,,,0.00,WUHU216HW,2013-03-31 03:27:00,
2013-03-30 20:32:00,52.7,41.3,30.10,SSW,203,0.4,2.2,65,0.00,,,0.00,WUHU216HW,2013-03-31 03:32:00,
2013-03-30 20:37:00,52.4,41.3,30.11,South,180,2.0,2.0,66,0.00,,,0.00,WUHU216HW,2013-03-31 03:37:00,
2013-03-30 20:42:00,52.0,41.0,30.10,SW,225,0.9,2.0,66,0.00,,,0.00,WUHU216HW,2013-03-31 03:42:00,
2013-03-30 20:47:00,51.8,41.7,30.10,SSW,203,0.7,1.8,68,0.00,,,0.00,WUHU216HW,2013-03-31 03:47:00,
2013-03-30 20:52:00,51.5,41.3,30.10,South,180,0.7,1.8,68,0.00,,,0.00,WUHU216HW,2013-03-31 03:52:00,
2013-03-30 20:57:00,51.5,41.3,30.10,SSE,158,1.1,1.6,68,0.00,,,0.00,WUHU216HW,2013-03-31 03:57:00,
2013-03-30 21:02:00,51.3,41.1,30.10,SSE,158,0.7,1.8,68,0.00,,,0.00,WUHU216HW,2013-03-31 04:02:00,
2013-03-30 21:07:00,51.1,41.0,30.10,SSE,158,0.0,1.8,68,0.00,,,0.00,WUHU216HW,2013-03-31 04:07:00,
2013-03-30 21:12:00,50.8,40.6,30.10,SSE,158,1.3,1.3,68,0.00,,,0.00,WUHU216HW,2013-03-31 04:12:00,
2013-03-30 21:17:00,50.4,40.7,30.10,South,180,2.2,2.2,69,0.00,,,0.00,WUHU216HW,2013-03-31 04:17:00,
2013-03-30 21:22:00,50.0,41.1,30.10,South,180,1.1,2.5,71,0.00,,,0.00,WUHU216HW,2013-03-31 04:22:00,
2013-03-30 21:27:00,50.0,41.1,30.10,South,180,1.6,2.5,71,0.00,,,0.00,WUHU216HW,2013-03-31 04:27:00,
2013-03-30 21:33:00,49.9,41.2,30.10,South,180,2.0,2.5,72,0.00,,,0.00,WUHU216HW,2013-03-31 04:33:00,
2013-03-30 21:38:00,49.5,40.5,30.10,South,180,1.1,2.5,71,0.00,,,0.00,WUHU216HW,2013-03-31 04:38:00,
2013-03-30 21:43:00,49.3,41.0,30.10,SSW,203,1.8,2.0,73,0.00,,,0.00,WUHU216HW,2013-03-31 04:43:00,
2013-03-30 21:48:00,49.3,41.7,30.10,South,180,2.0,3.1,75,0.00,,,0.00,WUHU216HW,2013-03-31 04:48:00,
2013-03-30 21:53:00,49.3,42.0,30.10,SSW,203,1.8,3.1,76,0.00,,,0.00,WUHU216HW,2013-03-31 04:53:00,
2013-03-30 21:58:00,49.7,42.4,30.10,SSW,203,2.0,2.7,76,0.00,,,0.00,WUHU216HW,2013-03-31 04:58:00,
2013-03-30 22:03:00,50.0,42.4,30.10,South,180,2.5,2.7,75,0.00,,,0.00,WUHU216HW,2013-03-31 05:03:00,
2013-03-30 22:08:00,50.2,42.6,30.10,SSW,203,2.0,2.5,75,0.00,,,0.00,WUHU216HW,2013-03-31 05:08:00,
2013-03-30 22:13:00,50.2,42.6,30.10,SW,225,2.2,2.5,75,0.00,,,0.00,WUHU216HW,2013-03-31 05:13:00,
2013-03-30 22:18:00,50.2,42.6,30.10,SW,225,2.2,2.5,75,0.00,,,0.00,WUHU216HW,2013-03-31 05:18:00,
2013-03-30 22:23:00,50.4,42.4,30.10,SSW,203,2.5,2.5,74,0.00,,,0.00,WUHU216HW,2013-03-31 05:23:00,
2013-03-30 22:28:00,50.4,42.4,30.10,SSW,203,1.3,3.1,74,0.00,,,0.00,WUHU216HW,2013-03-31 05:28:00,
2013-03-30 22:33:00,50.2,42.2,30.09,SSW,203,1.8,3.1,74,0.00,,,0.00,WUHU216HW,2013-03-31 05:33:00,
2013-03-30 22:38:00,50.0,42.0,30.09,South,180,2.0,2.5,74,0.00,,,0.00,WUHU216HW,2013-03-31 05:38:00,
2013-03-30 22:43:00,49.7,41.7,30.09,South,180,2.0,2.5,74,0.00,,,0.00,WUHU216HW,2013-03-31 05:43:00,
2013-03-30 22:48:00,49.3,41.7,30.09,SSW,203,1.3,2.5,75,0.00,,,0.00,WUHU216HW,2013-03-31 05:48:00,
2013-03-30 22:53:00,49.3,41.7,30.09,SSW,203,1.3,2.5,75,0.00,,,0.00,WUHU216HW,2013-03-31 05:53:00,
2013-03-30 22:58:00,49.3,41.7,30.09,SW,225,2.2,2.5,75,0.00,,,0.00,WUHU216HW,2013-03-31 05:58:00,
2013-03-30 23:03:00,49.3,41.7,30.09,SSW,203,2.0,2.9,75,0.00,,,0.00,WUHU216HW,2013-03-31 06:03:00,
2013-03-30 23:08:00,49.3,41.3,30.09,SW,225,1.8,2.9,74,0.00,,,0.00,WUHU216HW,2013-03-31 06:08:00,
2013-03-30 23:13:00,49.5,41.5,30.09,SSW,203,1.8,4.5,74,0.00,,,0.00,WUHU216HW,2013-03-31 06:13:00,
2013-03-30 23:18:00,49.5,41.1,30.09,South,180,2.2,4.5,73,0.00,,,0.00,WUHU216HW,2013-03-31 06:18:00,
2013-03-30 23:23:00,49.5,41.1,30.09,South,180,2.0,3.1,73,0.00,,,0.00,WUHU216HW,2013-03-31 06:23:00,
2013-03-30 23:28:00,49.3,41.0,30.09,SW,225,1.8,2.5,73,0.00,,,0.00,WUHU216HW,2013-03-31 06:28:00,
2013-03-30 23:33:00,49.0,41.0,30.09,South,180,1.8,3.1,74,0.00,,,0.00,WUHU216HW,2013-03-31 06:33:00,
2013-03-30 23:38:00,48.8,40.8,30.09,SSW,203,2.5,3.1,74,0.00,,,0.00,WUHU216HW,2013-03-31 06:38:00,
2013-03-30 23:43:00,48.8,40.8,30.08,South,180,3.1,3.6,74,0.00,,,0.00,WUHU216HW,2013-03-31 06:43:00,
2013-03-30 23:48:00,48.8,40.8,30.08,South,180,2.7,3.6,74,0.00,,,0.00,WUHU216HW,2013-03-31 06:48:00,
2013-03-30 23:53:00,48.6,40.6,30.08,SSE,158,3.1,3.4,74,0.00,,,0.00,WUHU216HW,2013-03-31 06:53:00,
2013-03-30 23:58:00,48.2,40.6,30.08,South,180,4.3,4.3,75,0.00,,,0.00,WUHU216HW,2013-03-31 06:58:00,